createdAt,value
2017-03-20T00:00:54.216Z,997.68
2017-03-20T00:02:04.663Z,997.73
2017-03-20T00:03:14.962Z,997.71
2017-03-20T00:04:25.272Z,997.72
2017-03-20T00:05:34.236Z,997.81
2017-03-20T00:06:45.573Z,997.74
2017-03-20T00:07:56.644Z,997.82
2017-03-20T00:09:06.711Z,997.77
2017-03-20T00:10:19.114Z,997.82
2017-03-20T00:11:31.694Z,997.84
2017-03-20T00:12:45.979Z,997.92
2017-03-20T00:14:00.407Z,997.91
2017-03-20T00:15:13.206Z,997.82
2017-03-20T00:16:23.070Z,997.97
2017-03-20T00:17:32.559Z,997.91
2017-03-20T00:18:42.045Z,997.94
2017-03-20T00:19:51.252Z,997.9
2017-03-20T00:21:02.273Z,997.97
2017-03-20T00:22:12.396Z,997.95
2017-03-20T00:23:24.648Z,997.97
2017-03-20T00:24:33.610Z,997.88
2017-03-20T00:25:44.558Z,997.91
2017-03-20T00:26:56.122Z,997.86
2017-03-20T00:28:07.729Z,997.96
2017-03-20T00:29:20.244Z,997.96
2017-03-20T00:30:33.041Z,998.04
2017-03-20T00:31:43.521Z,998.03
2017-03-20T00:32:52.774Z,998.01
2017-03-20T00:34:01.775Z,998.03
2017-03-20T00:35:13.099Z,998.06
2017-03-20T00:36:24.163Z,998.06
2017-03-20T00:37:34.933Z,998.07
2017-03-20T00:38:47.798Z,998.02
2017-03-20T00:39:56.773Z,998.03
2017-03-20T00:41:09.679Z,998.1
2017-03-20T00:42:22.512Z,998.02
2017-03-20T00:43:33.812Z,998.04
2017-03-20T00:44:45.726Z,998.15
2017-03-20T00:45:57.162Z,998.1
2017-03-20T00:47:10.152Z,998.16
2017-03-20T00:48:23.045Z,998.2
2017-03-20T00:49:35.181Z,998.07
2017-03-20T00:50:45.337Z,998.1
2017-03-20T00:51:54.462Z,998.14
2017-03-20T00:53:03.419Z,998.14
2017-03-20T00:54:12.397Z,998.15
2017-03-20T00:55:21.650Z,998.17
2017-03-20T00:56:31.653Z,998.2
2017-03-20T00:57:41.373Z,998.18
2017-03-20T00:58:52.222Z,998.2
2017-03-20T01:00:01.935Z,998.22
2017-03-20T01:01:12.733Z,998.22
2017-03-20T01:02:26.673Z,998.21
2017-03-20T01:03:39.781Z,998.19
2017-03-20T01:04:53.080Z,998.2
2017-03-20T01:06:05.494Z,998.21
2017-03-20T01:07:17.326Z,998.08
2017-03-20T01:08:31.146Z,998.2
2017-03-20T01:09:42.486Z,998.29
2017-03-20T01:10:51.910Z,998.23
2017-03-20T01:12:01.058Z,998.25
2017-03-20T01:13:11.465Z,998.15
2017-03-20T01:14:22.024Z,998.25
2017-03-20T01:15:32.207Z,998.17
2017-03-20T01:16:42.748Z,998.21
2017-03-20T01:17:55.210Z,998.18
2017-03-20T01:19:06.992Z,998.29
2017-03-20T01:20:18.663Z,998.21
2017-03-20T01:21:34.277Z,998.25
2017-03-20T01:22:47.562Z,998.19
2017-03-20T01:24:02.223Z,998.3
2017-03-20T01:25:17.437Z,998.15
2017-03-20T01:26:29.658Z,998.18
2017-03-20T01:27:38.629Z,998.22
2017-03-20T01:28:47.687Z,998.26
2017-03-20T01:29:58.206Z,998.2
2017-03-20T01:31:09.377Z,998.26
2017-03-20T01:32:19.768Z,998.24
2017-03-20T01:33:30.772Z,998.25
2017-03-20T01:34:40.392Z,998.26
2017-03-20T01:35:51.775Z,998.3
2017-03-20T01:37:02.031Z,998.26
2017-03-20T01:38:13.857Z,998.37
2017-03-20T01:39:26.580Z,998.34
2017-03-20T01:40:41.982Z,998.37
2017-03-20T01:41:53.938Z,998.3
2017-03-20T01:43:02.898Z,998.29
2017-03-20T01:44:11.892Z,998.37
2017-03-20T01:45:20.881Z,998.45
2017-03-20T01:46:29.839Z,998.37
2017-03-20T01:47:38.798Z,998.36
2017-03-20T01:48:47.758Z,998.37
2017-03-20T01:49:56.727Z,998.42
2017-03-20T01:51:05.695Z,998.4
2017-03-20T01:52:14.719Z,998.42
2017-03-20T01:53:23.677Z,998.44
2017-03-20T01:54:32.963Z,998.51
2017-03-20T01:55:41.917Z,998.43
2017-03-20T01:56:50.868Z,998.46
2017-03-20T01:57:59.825Z,998.4
2017-03-20T01:59:08.783Z,998.51
2017-03-20T02:00:17.754Z,998.43
2017-03-20T02:01:26.717Z,998.44
2017-03-20T02:02:35.676Z,998.45
2017-03-20T02:03:44.630Z,998.45
2017-03-20T02:04:53.598Z,998.43
2017-03-20T02:06:02.556Z,998.41
2017-03-20T02:07:11.511Z,998.46
2017-03-20T02:08:20.465Z,998.44
2017-03-20T02:09:29.475Z,998.47
2017-03-20T02:10:38.773Z,998.48
2017-03-20T02:11:47.728Z,998.4
2017-03-20T02:12:56.682Z,998.41
2017-03-20T02:14:05.725Z,998.42
2017-03-20T02:15:14.985Z,998.48
2017-03-20T02:16:24.032Z,998.54
2017-03-20T02:17:32.985Z,998.41
2017-03-20T02:18:41.948Z,998.39
2017-03-20T02:19:50.914Z,998.4
2017-03-20T02:21:00.182Z,998.46
2017-03-20T02:22:09.138Z,998.42
2017-03-20T02:23:18.180Z,998.54
2017-03-20T02:24:27.143Z,998.5
2017-03-20T02:25:36.105Z,998.47
2017-03-20T02:26:45.691Z,998.48
2017-03-20T02:27:54.734Z,998.45
2017-03-20T02:29:03.787Z,998.42
2017-03-20T02:30:12.751Z,998.48
2017-03-20T02:31:21.708Z,998.61
2017-03-20T02:32:30.922Z,998.57
2017-03-20T02:33:39.888Z,998.58
2017-03-20T02:34:48.850Z,998.55
2017-03-20T02:35:58.136Z,998.65
2017-03-20T02:37:07.175Z,998.61
2017-03-20T02:38:16.434Z,998.61
2017-03-20T02:39:25.401Z,998.56
2017-03-20T02:40:34.367Z,998.65
2017-03-20T02:41:43.319Z,998.68
2017-03-20T02:42:52.269Z,998.73
2017-03-20T02:44:01.487Z,998.72
2017-03-20T02:45:10.450Z,998.8
2017-03-20T02:46:19.406Z,998.73
2017-03-20T02:47:28.373Z,998.74
2017-03-20T02:48:37.329Z,998.74
2017-03-20T02:49:46.590Z,998.84
2017-03-20T02:50:55.547Z,998.9
2017-03-20T02:52:04.504Z,998.91
2017-03-20T02:53:13.471Z,998.87
2017-03-20T02:54:22.433Z,998.86
2017-03-20T02:55:31.701Z,998.85
2017-03-20T02:56:40.986Z,998.92
2017-03-20T02:57:49.946Z,998.96
2017-03-20T02:58:58.911Z,998.89
2017-03-20T03:00:07.876Z,999
2017-03-20T03:01:17.184Z,999.02
2017-03-20T03:02:26.135Z,999.05
2017-03-20T03:03:35.095Z,998.99
2017-03-20T03:04:44.056Z,998.98
2017-03-20T03:05:53.015Z,999.04
2017-03-20T03:07:02.226Z,999.06
2017-03-20T03:08:11.284Z,999.02
2017-03-20T03:09:20.242Z,999.02
2017-03-20T03:10:29.205Z,999.03
2017-03-20T03:11:38.162Z,999.03
2017-03-20T03:12:47.425Z,999.12
2017-03-20T03:13:56.393Z,999.12
2017-03-20T03:15:05.389Z,999.14
2017-03-20T03:16:14.347Z,999.17
2017-03-20T03:17:23.301Z,999.16
2017-03-20T03:18:32.558Z,999.23
2017-03-20T03:19:41.524Z,999.25
2017-03-20T03:20:50.487Z,999.3
2017-03-20T03:21:59.444Z,999.32
2017-03-20T03:23:08.405Z,999.27
2017-03-20T03:24:17.683Z,999.25
2017-03-20T03:25:26.643Z,999.31
2017-03-20T03:26:35.601Z,999.3
2017-03-20T03:27:44.561Z,999.35
2017-03-20T03:28:53.523Z,999.37
2017-03-20T03:30:02.786Z,999.34
2017-03-20T03:31:11.740Z,999.42
2017-03-20T03:32:20.696Z,999.42
2017-03-20T03:33:29.735Z,999.39
2017-03-20T03:34:39.033Z,999.47
2017-03-20T03:35:48.291Z,999.53
2017-03-20T03:36:57.257Z,999.52
2017-03-20T03:38:06.245Z,999.54
2017-03-20T03:39:15.207Z,999.54
2017-03-20T03:40:24.173Z,999.5
2017-03-20T03:41:33.376Z,999.53
2017-03-20T03:42:42.334Z,999.55
2017-03-20T03:43:51.305Z,999.58
2017-03-20T03:45:00.275Z,999.63
2017-03-20T03:46:09.324Z,999.6
2017-03-20T03:47:18.532Z,999.58
2017-03-20T03:48:27.494Z,999.63
2017-03-20T03:49:36.463Z,999.66
2017-03-20T03:50:45.420Z,999.62
2017-03-20T03:51:54.374Z,999.65
2017-03-20T03:53:03.668Z,999.65
2017-03-20T03:54:12.626Z,999.69
2017-03-20T03:55:21.589Z,999.68
2017-03-20T03:56:30.554Z,999.68
2017-03-20T03:57:39.511Z,999.7
2017-03-20T03:58:48.770Z,999.67
2017-03-20T03:59:57.733Z,999.67
2017-03-20T04:01:06.691Z,999.76
2017-03-20T04:02:15.647Z,999.77
2017-03-20T04:03:24.603Z,999.79
2017-03-20T04:04:33.959Z,999.81
2017-03-20T04:05:43.251Z,999.81
2017-03-20T04:06:52.532Z,999.84
2017-03-20T04:08:01.488Z,999.81
2017-03-20T04:09:10.491Z,999.78
2017-03-20T04:10:19.758Z,999.74
2017-03-20T04:11:28.827Z,999.87
2017-03-20T04:12:37.783Z,999.85
2017-03-20T04:13:46.747Z,999.89
2017-03-20T04:14:55.708Z,999.86
2017-03-20T04:16:04.962Z,999.86
2017-03-20T04:17:14.020Z,999.84
2017-03-20T04:18:22.989Z,999.8
2017-03-20T04:19:31.952Z,999.91
2017-03-20T04:20:40.952Z,999.93
2017-03-20T04:21:50.477Z,999.93
2017-03-20T04:22:59.434Z,999.92
2017-03-20T04:24:08.395Z,999.91
2017-03-20T04:25:17.364Z,999.96
2017-03-20T04:26:26.317Z,1000.03
2017-03-20T04:27:35.573Z,999.96
2017-03-20T04:28:44.532Z,999.96
2017-03-20T04:29:53.501Z,1000.02
2017-03-20T04:31:02.475Z,1000.04
2017-03-20T04:32:11.432Z,1000.03
2017-03-20T04:33:20.643Z,1000.09
2017-03-20T04:34:29.602Z,1000.18
2017-03-20T04:35:38.562Z,1000.11
2017-03-20T04:36:47.845Z,1000.08
2017-03-20T04:37:56.801Z,1000.06
2017-03-20T04:39:06.010Z,1000.01
2017-03-20T04:40:14.970Z,1000.05
2017-03-20T04:41:23.951Z,1000.03
2017-03-20T04:42:32.944Z,1000
2017-03-20T04:43:41.989Z,1000.04
2017-03-20T04:44:51.340Z,1000.05
2017-03-20T04:46:00.311Z,1000.02
2017-03-20T04:47:09.261Z,1000.07
2017-03-20T04:48:18.218Z,1000.11
2017-03-20T04:49:27.203Z,1000.08
2017-03-20T04:50:36.463Z,1000.11
2017-03-20T04:51:45.418Z,1000.12
2017-03-20T04:52:54.471Z,1000.13
2017-03-20T04:54:03.430Z,1000.14
2017-03-20T04:55:12.403Z,1000.16
2017-03-20T04:56:21.712Z,1000.12
2017-03-20T04:57:30.751Z,1000.12
2017-03-20T04:58:39.718Z,1000.15
2017-03-20T04:59:48.682Z,1000.16
2017-03-20T05:00:57.644Z,1000.21
2017-03-20T05:02:06.855Z,1000.23
2017-03-20T05:03:15.813Z,1000.19
2017-03-20T05:04:24.773Z,1000.26
2017-03-20T05:05:33.736Z,1000.23
2017-03-20T05:06:42.698Z,1000.28
2017-03-20T05:07:51.957Z,1000.27
2017-03-20T05:09:01.000Z,1000.29
2017-03-20T05:10:09.964Z,1000.28
2017-03-20T05:11:18.925Z,1000.32
2017-03-20T05:12:27.883Z,1000.32
2017-03-20T05:13:37.461Z,1000.31
2017-03-20T05:14:46.422Z,1000.31
2017-03-20T05:15:55.384Z,1000.32
2017-03-20T05:17:04.342Z,1000.32
2017-03-20T05:18:13.306Z,1000.33
2017-03-20T05:19:22.521Z,1000.35
2017-03-20T05:20:31.483Z,1000.34
2017-03-20T05:21:40.532Z,1000.4
2017-03-20T05:22:49.493Z,1000.45
2017-03-20T05:23:58.460Z,1000.45
2017-03-20T05:25:07.666Z,1000.41
2017-03-20T05:26:16.631Z,1000.39
2017-03-20T05:27:25.716Z,1000.4
2017-03-20T05:28:34.761Z,1000.45
2017-03-20T05:29:43.718Z,1000.39
2017-03-20T05:30:52.972Z,1000.41
2017-03-20T05:32:02.046Z,1000.44
2017-03-20T05:33:11.005Z,1000.42
2017-03-20T05:34:19.978Z,1000.43
2017-03-20T05:35:28.944Z,1000.5
2017-03-20T05:36:38.201Z,1000.53
2017-03-20T05:37:47.162Z,1000.57
2017-03-20T05:38:56.266Z,1000.56
2017-03-20T05:40:05.622Z,1000.59
2017-03-20T05:41:14.798Z,1000.61
2017-03-20T05:42:24.015Z,1000.64
2017-03-20T05:43:33.066Z,1000.67
2017-03-20T05:44:42.031Z,1000.68
2017-03-20T05:45:50.990Z,1000.67
2017-03-20T05:46:59.949Z,1000.65
2017-03-20T05:48:09.202Z,1000.65
2017-03-20T05:49:18.171Z,1000.61
2017-03-20T05:50:27.133Z,1000.69
2017-03-20T05:51:36.179Z,1000.7
2017-03-20T05:52:45.135Z,1000.66
2017-03-20T05:53:54.486Z,1000.66
2017-03-20T05:55:03.475Z,1000.69
2017-03-20T05:56:12.433Z,1000.73
2017-03-20T05:57:21.400Z,1000.74
2017-03-20T05:58:30.354Z,1000.73
2017-03-20T05:59:39.636Z,1000.71
2017-03-20T06:00:48.594Z,1000.68
2017-03-20T06:01:57.577Z,1000.72
2017-03-20T06:03:06.534Z,1000.77
2017-03-20T06:04:15.542Z,1000.75
2017-03-20T06:05:24.810Z,1000.75
2017-03-20T06:06:33.773Z,1000.77
2017-03-20T06:07:42.915Z,1000.8
2017-03-20T06:08:51.869Z,1000.82
2017-03-20T06:10:00.828Z,1000.9
2017-03-20T06:11:10.098Z,1000.85
2017-03-20T06:12:19.065Z,1000.87
2017-03-20T06:13:28.024Z,1000.87
2017-03-20T06:14:37.654Z,1000.89
2017-03-20T06:15:46.718Z,1000.92
2017-03-20T06:16:56.083Z,1000.93
2017-03-20T06:18:05.042Z,1000.96
2017-03-20T06:19:14.006Z,1000.96
2017-03-20T06:20:23.056Z,1000.95
2017-03-20T06:21:32.019Z,1000.95
2017-03-20T06:22:41.929Z,1001
2017-03-20T06:23:50.895Z,1001
2017-03-20T06:24:59.861Z,1000.99
2017-03-20T06:26:08.828Z,1000.97
2017-03-20T06:27:17.788Z,1001
2017-03-20T06:28:27.045Z,1000.98
2017-03-20T06:29:36.002Z,1001.04
2017-03-20T06:30:44.974Z,1000.95
2017-03-20T06:31:53.929Z,1000.96
2017-03-20T06:33:02.880Z,1000.93
2017-03-20T06:34:12.143Z,1000.97
2017-03-20T06:35:21.111Z,1001.01
2017-03-20T06:36:30.152Z,1000.99
2017-03-20T06:37:39.112Z,1000.97
2017-03-20T06:38:48.072Z,1000.96
2017-03-20T06:39:57.337Z,1000.97
2017-03-20T06:41:06.296Z,1000.98
2017-03-20T06:42:15.243Z,1000.99
2017-03-20T06:43:24.290Z,1000.99
2017-03-20T06:44:33.254Z,1001
2017-03-20T06:45:42.464Z,1000.97
2017-03-20T06:46:51.432Z,1000.93
2017-03-20T06:48:00.392Z,1000.99
2017-03-20T06:49:09.358Z,1000.97
2017-03-20T06:50:18.318Z,1000.96
2017-03-20T06:51:27.524Z,1000.97
2017-03-20T06:52:36.485Z,1000.99
2017-03-20T06:53:45.445Z,1001
2017-03-20T06:54:54.403Z,1001.01
2017-03-20T06:56:03.455Z,1001
2017-03-20T06:57:12.803Z,1001.03
2017-03-20T06:58:21.769Z,1001.04
2017-03-20T06:59:30.755Z,1001.05
2017-03-20T07:00:39.708Z,1001.06
2017-03-20T07:01:48.663Z,1001.07
2017-03-20T07:02:57.919Z,1001.07
2017-03-20T07:04:06.875Z,1001.06
2017-03-20T07:05:15.842Z,1001.05
2017-03-20T07:06:24.796Z,1001.06
2017-03-20T07:07:33.764Z,1001.11
2017-03-20T07:08:43.026Z,1001.05
2017-03-20T07:09:52.311Z,1001.02
2017-03-20T07:11:01.281Z,1001.05
2017-03-20T07:12:10.556Z,1001.03
2017-03-20T07:13:19.550Z,1001.06
2017-03-20T07:14:28.797Z,1001.06
2017-03-20T07:15:38.086Z,1001.03
2017-03-20T07:16:47.040Z,1001.08
2017-03-20T07:17:56.178Z,1001.1
2017-03-20T07:19:05.141Z,1001.09
2017-03-20T07:20:14.410Z,1001.1
2017-03-20T07:21:23.451Z,1001.12
2017-03-20T07:22:32.436Z,1001.09
2017-03-20T07:23:41.405Z,1001.07
2017-03-20T07:24:50.413Z,1001.13
2017-03-20T07:26:00.095Z,1001.1
2017-03-20T07:27:10.693Z,1001.15
2017-03-20T07:28:21.103Z,1001.15
2017-03-20T07:29:30.074Z,1001.12
2017-03-20T07:30:39.040Z,1001.18
2017-03-20T07:31:48.385Z,1001.15
2017-03-20T07:32:57.343Z,1001.13
2017-03-20T07:34:06.306Z,1001.12
2017-03-20T07:35:15.267Z,1001.13
2017-03-20T07:36:24.223Z,1001.19
2017-03-20T07:37:33.479Z,1001.19
2017-03-20T07:38:42.453Z,1001.16
2017-03-20T07:39:51.421Z,1001.14
2017-03-20T07:41:00.469Z,1001.24
2017-03-20T07:42:09.513Z,1001.18
2017-03-20T07:43:18.780Z,1001.16
2017-03-20T07:44:27.743Z,1001.12
2017-03-20T07:45:36.701Z,1001.1
2017-03-20T07:46:45.661Z,1001.15
2017-03-20T07:47:54.634Z,1001.11
2017-03-20T07:49:03.901Z,1001.13
2017-03-20T07:50:12.867Z,1001.1
2017-03-20T07:51:21.817Z,1001.13
2017-03-20T07:52:30.775Z,1001.12
2017-03-20T07:53:39.737Z,1001.16
2017-03-20T07:54:49.005Z,1001.15
2017-03-20T07:55:57.977Z,1001.21
2017-03-20T07:57:06.947Z,1001.2
2017-03-20T07:58:15.908Z,1001.21
2017-03-20T07:59:24.867Z,1001.15
2017-03-20T08:00:34.127Z,1001.12
2017-03-20T08:01:43.126Z,1001.13
2017-03-20T08:02:52.375Z,1001.18
2017-03-20T08:04:01.794Z,1001.17
2017-03-20T08:05:10.873Z,1001.05
2017-03-20T08:06:20.296Z,1001.1
2017-03-20T08:07:29.399Z,1001.07
2017-03-20T08:08:38.690Z,1001.06
2017-03-20T08:09:47.876Z,1001.13
2017-03-20T08:10:56.978Z,1001.1
2017-03-20T08:12:06.195Z,1001.12
2017-03-20T08:13:15.294Z,1001.15
2017-03-20T08:14:24.260Z,1001.14
2017-03-20T08:15:33.377Z,1001.09
2017-03-20T08:16:42.650Z,1001.17
2017-03-20T08:17:51.857Z,1001.14
2017-03-20T08:19:00.815Z,1001.19
2017-03-20T08:20:09.817Z,1001.2
2017-03-20T08:21:18.777Z,1001.2
2017-03-20T08:22:27.740Z,1001.23
2017-03-20T08:23:37.014Z,1001.19
2017-03-20T08:24:46.365Z,1001.21
2017-03-20T08:25:55.462Z,1001.22
2017-03-20T08:27:04.671Z,1001.19
2017-03-20T08:28:13.988Z,1001.22
2017-03-20T08:29:23.315Z,1001.22
2017-03-20T08:30:32.277Z,1001.24
2017-03-20T08:31:41.350Z,1001.25
2017-03-20T08:32:50.310Z,1001.27
2017-03-20T08:33:59.338Z,1001.25
2017-03-20T08:35:08.551Z,1001.19
2017-03-20T08:36:17.508Z,1001.27
2017-03-20T08:37:26.494Z,1001.23
2017-03-20T08:38:37.418Z,1001.27
2017-03-20T08:39:46.730Z,1001.32
2017-03-20T08:40:55.949Z,1001.29
2017-03-20T08:42:04.905Z,1001.27
2017-03-20T08:43:14.807Z,1001.31
2017-03-20T08:44:23.776Z,1001.31
2017-03-20T08:45:32.742Z,1001.38
2017-03-20T08:46:42.008Z,1001.37
2017-03-20T08:47:50.963Z,1001.35
2017-03-20T08:48:59.931Z,1001.36
2017-03-20T08:50:09.301Z,1001.37
2017-03-20T08:51:18.259Z,1001.39
2017-03-20T08:52:27.517Z,1001.38
2017-03-20T08:53:36.481Z,1001.4
2017-03-20T08:54:45.532Z,1001.37
2017-03-20T08:55:54.494Z,1001.38
2017-03-20T08:57:03.462Z,1001.38
2017-03-20T08:58:12.716Z,1001.31
2017-03-20T08:59:21.674Z,1001.38
2017-03-20T09:00:30.727Z,1001.39
2017-03-20T09:01:39.686Z,1001.32
2017-03-20T09:02:48.655Z,1001.32
2017-03-20T09:03:57.919Z,1001.31
2017-03-20T09:05:06.881Z,1001.34
2017-03-20T09:06:15.924Z,1001.4
2017-03-20T09:07:24.919Z,1001.34
2017-03-20T09:08:37.236Z,1001.38
2017-03-20T09:09:47.008Z,1001.39
2017-03-20T09:10:56.228Z,1001.37
2017-03-20T09:12:05.185Z,1001.38
2017-03-20T09:13:14.229Z,1001.42
2017-03-20T09:14:23.257Z,1001.38
2017-03-20T09:15:32.520Z,1001.44
2017-03-20T09:16:41.565Z,1001.46
2017-03-20T09:17:50.530Z,1001.44
2017-03-20T09:18:59.495Z,1001.44
2017-03-20T09:20:08.458Z,1001.42
2017-03-20T09:21:17.967Z,1001.45
2017-03-20T09:22:27.007Z,1001.46
2017-03-20T09:23:35.967Z,1001.45
2017-03-20T09:24:44.931Z,1001.46
2017-03-20T09:25:53.892Z,1001.47
2017-03-20T09:27:03.234Z,1001.48
2017-03-20T09:28:12.331Z,1001.5
2017-03-20T09:29:21.288Z,1001.47
2017-03-20T09:30:30.251Z,1001.49
2017-03-20T09:31:39.215Z,1001.5
2017-03-20T09:32:48.426Z,1001.49
2017-03-20T09:33:57.723Z,1001.5
2017-03-20T09:35:06.707Z,1001.49
2017-03-20T09:36:15.664Z,1001.51
2017-03-20T09:37:24.618Z,1001.5
2017-03-20T09:38:33.882Z,1001.46
2017-03-20T09:39:43.175Z,1001.5
2017-03-20T09:40:52.129Z,1001.49
2017-03-20T09:42:01.147Z,1001.52
2017-03-20T09:43:10.110Z,1001.47
2017-03-20T09:44:19.371Z,1001.46
2017-03-20T09:45:28.342Z,1001.43
2017-03-20T09:46:37.301Z,1001.48
2017-03-20T09:47:46.253Z,1001.46
2017-03-20T09:48:55.213Z,1001.44
2017-03-20T09:50:04.471Z,1001.41
2017-03-20T09:51:13.433Z,1001.41
2017-03-20T09:52:22.387Z,1001.43
2017-03-20T09:53:31.338Z,1001.42
2017-03-20T09:54:40.293Z,1001.41
2017-03-20T09:55:49.551Z,1001.4
2017-03-20T09:56:58.606Z,1001.42
2017-03-20T09:58:07.659Z,1001.42
2017-03-20T09:59:16.665Z,1001.38
2017-03-20T10:00:25.708Z,1001.4
2017-03-20T10:01:34.913Z,1001.39
2017-03-20T10:02:43.870Z,1001.42
2017-03-20T10:03:52.835Z,1001.41
2017-03-20T10:05:02.160Z,1001.36
2017-03-20T10:06:11.129Z,1001.39
2017-03-20T10:07:20.389Z,1001.41
2017-03-20T10:08:29.351Z,1001.43
2017-03-20T10:09:38.645Z,1001.46
2017-03-20T10:10:47.612Z,1001.44
2017-03-20T10:11:56.571Z,1001.46
2017-03-20T10:13:05.832Z,1001.44
2017-03-20T10:14:14.801Z,1001.47
2017-03-20T10:15:23.763Z,1001.45
2017-03-20T10:16:32.739Z,1001.44
2017-03-20T10:17:41.698Z,1001.47
2017-03-20T10:18:50.961Z,1001.5
2017-03-20T10:19:59.967Z,1001.44
2017-03-20T10:21:09.014Z,1001.45
2017-03-20T10:22:17.987Z,1001.45
2017-03-20T10:23:27.153Z,1001.46
2017-03-20T10:24:36.114Z,1001.43
2017-03-20T10:25:45.685Z,1001.4
2017-03-20T10:27:02.518Z,1001.35
2017-03-20T10:28:18.970Z,1001.39
2017-03-20T10:29:30.776Z,1001.4
2017-03-20T10:30:39.735Z,1001.33
2017-03-20T10:31:48.692Z,1001.35
2017-03-20T10:32:57.737Z,1001.36
2017-03-20T10:34:06.702Z,1001.37
2017-03-20T10:35:15.914Z,1001.43
2017-03-20T10:36:24.907Z,1001.39
2017-03-20T10:37:33.873Z,1001.43
2017-03-20T10:38:42.838Z,1001.4
2017-03-20T10:39:51.797Z,1001.41
2017-03-20T10:41:01.063Z,1001.45
2017-03-20T10:42:10.021Z,1001.43
2017-03-20T10:43:18.975Z,1001.39
2017-03-20T10:44:27.939Z,1001.36
2017-03-20T10:45:36.898Z,1001.4
2017-03-20T10:46:46.166Z,1001.38
2017-03-20T10:47:55.125Z,1001.37
2017-03-20T10:49:04.084Z,1001.37
2017-03-20T10:50:13.058Z,1001.36
2017-03-20T10:51:22.074Z,1001.35
2017-03-20T10:52:31.631Z,1001.33
2017-03-20T10:53:40.752Z,1001.33
2017-03-20T10:54:49.885Z,1001.3
2017-03-20T10:55:59.048Z,1001.29
2017-03-20T10:57:08.114Z,1001.27
2017-03-20T10:58:17.326Z,1001.32
2017-03-20T10:59:26.290Z,1001.31
2017-03-20T11:00:35.287Z,1001.36
2017-03-20T11:01:44.426Z,1001.37
2017-03-20T11:02:53.536Z,1001.36
2017-03-20T11:04:02.907Z,1001.33
2017-03-20T11:05:11.963Z,1001.38
2017-03-20T11:06:21.065Z,1001.41
2017-03-20T11:07:30.116Z,1001.35
2017-03-20T11:08:39.318Z,1001.41
2017-03-20T11:09:48.549Z,1001.43
2017-03-20T11:10:57.651Z,1001.44
2017-03-20T11:12:06.792Z,1001.43
2017-03-20T11:13:15.766Z,1001.47
2017-03-20T11:14:24.855Z,1001.45
2017-03-20T11:15:34.239Z,1001.41
2017-03-20T11:16:43.285Z,1001.44
2017-03-20T11:17:52.296Z,1001.43
2017-03-20T11:19:01.260Z,1001.47
2017-03-20T11:20:10.224Z,1001.43
2017-03-20T11:21:19.486Z,1001.4
2017-03-20T11:22:28.449Z,1001.39
2017-03-20T11:23:37.421Z,1001.42
2017-03-20T11:24:46.386Z,1001.46
2017-03-20T11:25:55.348Z,1001.42
2017-03-20T11:27:04.705Z,1001.38
2017-03-20T11:28:13.664Z,1001.43
2017-03-20T11:29:22.632Z,1001.47
2017-03-20T11:30:31.593Z,1001.43
2017-03-20T11:31:40.876Z,1001.46
2017-03-20T11:32:50.131Z,1001.45
2017-03-20T11:33:59.099Z,1001.49
2017-03-20T11:35:08.090Z,1001.47
2017-03-20T11:36:17.052Z,1001.45
2017-03-20T11:37:26.098Z,1001.45
2017-03-20T11:38:35.353Z,1001.5
2017-03-20T11:39:44.318Z,1001.48
2017-03-20T11:40:53.279Z,1001.44
2017-03-20T11:42:02.239Z,1001.43
2017-03-20T11:43:11.196Z,1001.46
2017-03-20T11:44:20.640Z,1001.49
2017-03-20T11:45:29.598Z,1001.43
2017-03-20T11:46:38.562Z,1001.42
2017-03-20T11:47:47.516Z,1001.46
2017-03-20T11:48:56.478Z,1001.36
2017-03-20T11:50:05.691Z,1001.36
2017-03-20T11:51:14.734Z,1001.42
2017-03-20T11:52:23.693Z,1001.4
2017-03-20T11:53:32.649Z,1001.38
2017-03-20T11:54:41.613Z,1001.32
2017-03-20T11:55:50.872Z,1001.35
2017-03-20T11:56:59.831Z,1001.35
2017-03-20T11:58:08.788Z,1001.35
2017-03-20T11:59:17.797Z,1001.3
2017-03-20T12:00:26.767Z,1001.31
2017-03-20T12:01:36.033Z,1001.34
2017-03-20T12:02:44.997Z,1001.33
2017-03-20T12:03:53.989Z,1001.31
2017-03-20T12:05:02.951Z,1001.3
2017-03-20T12:06:11.912Z,1001.28
2017-03-20T12:07:21.170Z,1001.27
2017-03-20T12:08:30.144Z,1001.25
2017-03-20T12:09:39.108Z,1001.26
2017-03-20T12:10:48.066Z,1001.25
2017-03-20T12:11:57.065Z,1001.25
2017-03-20T12:13:06.327Z,1001.23
2017-03-20T12:14:15.297Z,1001.22
2017-03-20T12:15:24.260Z,1001.3
2017-03-20T12:16:33.214Z,1001.23
2017-03-20T12:17:42.174Z,1001.19
2017-03-20T12:18:51.480Z,1001.24
2017-03-20T12:20:00.445Z,1001.21
2017-03-20T12:21:09.399Z,1001.16
2017-03-20T12:22:18.355Z,1001.17
2017-03-20T12:23:27.317Z,1001.18
2017-03-20T12:24:36.582Z,1001.21
2017-03-20T12:25:45.540Z,1001.14
2017-03-20T12:26:54.582Z,1001.15
2017-03-20T12:28:03.546Z,1001.14
2017-03-20T12:29:12.512Z,1001.16
2017-03-20T12:30:22.142Z,1001.14
2017-03-20T12:31:31.140Z,1001.18
2017-03-20T12:32:40.103Z,1001.13
2017-03-20T12:33:49.061Z,1001.12
2017-03-20T12:34:58.021Z,1001.16
2017-03-20T12:36:07.280Z,1001.14
2017-03-20T12:37:16.245Z,1001.16
2017-03-20T12:38:25.237Z,1001.14
2017-03-20T12:39:34.550Z,1001.13
2017-03-20T12:40:43.509Z,1001.13
2017-03-20T12:41:52.770Z,1001.1
2017-03-20T12:43:01.744Z,1001.07
2017-03-20T12:44:10.722Z,1001.08
2017-03-20T12:45:19.692Z,1001.06
2017-03-20T12:46:28.650Z,1001.07
2017-03-20T12:47:37.913Z,1001.09
2017-03-20T12:48:46.883Z,1001.05
2017-03-20T12:49:55.844Z,1001.06
2017-03-20T12:51:04.807Z,1001.07
2017-03-20T12:52:13.855Z,1001.05
2017-03-20T12:53:23.113Z,1001.01
2017-03-20T12:54:32.168Z,1001
2017-03-20T12:55:41.124Z,1001.01
2017-03-20T12:56:50.082Z,1001.1
2017-03-20T12:57:59.063Z,1001.04
2017-03-20T12:59:08.037Z,1001.07
2017-03-20T13:00:17.006Z,1001.05
2017-03-20T13:01:26.297Z,1001.01
2017-03-20T13:02:35.251Z,1001.03
2017-03-20T13:03:44.461Z,1001.02
2017-03-20T13:04:53.425Z,1000.97
2017-03-20T13:06:02.407Z,1000.97
2017-03-20T13:07:11.375Z,1001.04
2017-03-20T13:08:20.423Z,1001
2017-03-20T13:09:29.779Z,1001.05
2017-03-20T13:10:38.743Z,1001.01
2017-03-20T13:11:47.787Z,1001.04
2017-03-20T13:12:56.786Z,1001.03
2017-03-20T13:14:05.766Z,1001.05
2017-03-20T13:15:15.376Z,1001.01
2017-03-20T13:16:24.340Z,1001.06
2017-03-20T13:17:33.294Z,1001.07
2017-03-20T13:18:42.257Z,1000.97
2017-03-20T13:19:51.307Z,1001.02
2017-03-20T13:21:00.572Z,1001.06
2017-03-20T13:22:09.529Z,1001.05
2017-03-20T13:23:18.572Z,1001.06
2017-03-20T13:24:27.538Z,1001.08
2017-03-20T13:25:36.498Z,1001.04
2017-03-20T13:26:45.755Z,1001.1
2017-03-20T13:27:54.711Z,1001.09
2017-03-20T13:29:03.670Z,1001.08
2017-03-20T13:30:12.627Z,1001.1
2017-03-20T13:31:21.586Z,1001.07
2017-03-20T13:32:30.793Z,1001.05
2017-03-20T13:33:39.750Z,1001.07
2017-03-20T13:34:48.715Z,1001.04
2017-03-20T13:35:57.677Z,1001.11
2017-03-20T13:37:06.635Z,1001.09
2017-03-20T13:38:15.900Z,1001.1
2017-03-20T13:39:24.865Z,1001.08
2017-03-20T13:40:33.922Z,1001.11
2017-03-20T13:41:42.879Z,1001.1
2017-03-20T13:42:51.843Z,1001.08
2017-03-20T13:44:01.057Z,1001.08
2017-03-20T13:45:10.020Z,1001.09
2017-03-20T13:46:18.978Z,1000.98
2017-03-20T13:47:27.943Z,1001.01
2017-03-20T13:48:36.910Z,1000.97
2017-03-20T13:49:46.453Z,1001
2017-03-20T13:50:55.411Z,1000.94
2017-03-20T13:52:04.380Z,1000.92
2017-03-20T13:53:13.339Z,1000.96
2017-03-20T13:54:22.308Z,1000.97
2017-03-20T13:55:31.570Z,1000.97
2017-03-20T13:56:42.449Z,1000.99
2017-03-20T13:57:51.468Z,1000.98
2017-03-20T13:59:00.835Z,1000.96
2017-03-20T14:00:09.806Z,1000.96
2017-03-20T14:01:19.150Z,1001.02
2017-03-20T14:02:28.200Z,1000.96
2017-03-20T14:03:37.160Z,1000.99
2017-03-20T14:04:46.300Z,1000.9
2017-03-20T14:05:55.259Z,1000.97
2017-03-20T14:07:04.516Z,1000.94
2017-03-20T14:08:13.473Z,1000.96
2017-03-20T14:09:22.442Z,1000.9
2017-03-20T14:10:31.750Z,1000.93